sensor_id;sensor_type;location;lat;lon;timestamp;pressure;altitude;pressure_sealevel;temperature;humidity
38227;BME280;24026;49.446;8.576;2023-05-09T00:00:11;100790.78;;;18.71;66.82
38227;BME280;24026;49.446;8.576;2023-05-09T00:02:31;100787.56;;;18.69;67.26
38227;BME280;24026;49.446;8.576;2023-05-09T00:04:53;100782.19;;;18.69;67.49
38227;BME280;24026;49.446;8.576;2023-05-09T00:07:14;100780.88;;;18.66;66.88
38227;BME280;24026;49.446;8.576;2023-05-09T00:09:34;100775.78;;;18.65;67.25
38227;BME280;24026;49.446;8.576;2023-05-09T00:11:55;100779.03;;;18.62;67.41
38227;BME280;24026;49.446;8.576;2023-05-09T00:14:15;100776.34;;;18.62;67.19
38227;BME280;24026;49.446;8.576;2023-05-09T00:16:37;100771.25;;;18.60;67.27
38227;BME280;24026;49.446;8.576;2023-05-09T00:18:58;100767.47;;;18.61;67.11
38227;BME280;24026;49.446;8.576;2023-05-09T00:21:18;100775.00;;;18.59;67.37
38227;BME280;24026;49.446;8.576;2023-05-09T00:23:39;100771.81;;;18.57;67.42
38227;BME280;24026;49.446;8.576;2023-05-09T00:26:00;100768.34;;;18.57;67.17
38227;BME280;24026;49.446;8.576;2023-05-09T00:28:20;100772.91;;;18.56;67.38
38227;BME280;24026;49.446;8.576;2023-05-09T00:30:41;100769.63;;;18.59;66.99
38227;BME280;24026;49.446;8.576;2023-05-09T00:33:01;100766.72;;;18.56;67.23
38227;BME280;24026;49.446;8.576;2023-05-09T00:35:21;100760.03;;;18.53;67.28
38227;BME280;24026;49.446;8.576;2023-05-09T00:37:42;100762.22;;;18.51;67.19
38227;BME280;24026;49.446;8.576;2023-05-09T00:40:03;100752.81;;;18.48;67.32
38227;BME280;24026;49.446;8.576;2023-05-09T00:42:25;100751.19;;;18.47;67.78
38227;BME280;24026;49.446;8.576;2023-05-09T00:44:45;100754.16;;;18.46;67.30
38227;BME280;24026;49.446;8.576;2023-05-09T00:47:06;100751.19;;;18.47;67.33
38227;BME280;24026;49.446;8.576;2023-05-09T00:49:26;100757.69;;;18.46;67.50
38227;BME280;24026;49.446;8.576;2023-05-09T00:51:47;100754.47;;;18.44;67.31
38227;BME280;24026;49.446;8.576;2023-05-09T00:54:08;100751.25;;;18.42;67.58
38227;BME280;24026;49.446;8.576;2023-05-09T00:56:29;100746.69;;;18.43;67.80
38227;BME280;24026;49.446;8.576;2023-05-09T00:58:50;100748.56;;;18.42;67.71
38227;BME280;24026;49.446;8.576;2023-05-09T01:01:11;100749.38;;;18.43;67.42
38227;BME280;24026;49.446;8.576;2023-05-09T01:03:32;100751.81;;;18.39;67.68
38227;BME280;24026;49.446;8.576;2023-05-09T01:06:02;100746.69;;;18.43;67.21
38227;BME280;24026;49.446;8.576;2023-05-09T01:08:42;100747.25;;;18.40;67.67
38227;BME280;24026;49.446;8.576;2023-05-09T01:11:22;100749.78;;;18.31;67.60
38227;BME280;24026;49.446;8.576;2023-05-09T01:14:43;100739.81;;;18.31;67.83
38227;BME280;24026;49.446;8.576;2023-05-09T01:17:06;100743.06;;;18.28;67.73
38227;BME280;24026;49.446;8.576;2023-05-09T01:22:08;100732.28;;;18.28;67.89
38227;BME280;24026;49.446;8.576;2023-05-09T01:24:58;100732.28;;;18.28;67.82
38227;BME280;24026;49.446;8.576;2023-05-09T01:30:04;100720.50;;;18.24;67.85
38227;BME280;24026;49.446;8.576;2023-05-09T01:32:27;100723.50;;;18.23;68.04
38227;BME280;24026;49.446;8.576;2023-05-09T01:34:49;100718.91;;;18.23;67.95
38227;BME280;24026;49.446;8.576;2023-05-09T01:37:13;100714.81;;;18.26;67.91
38227;BME280;24026;49.446;8.576;2023-05-09T01:39:37;100712.72;;;18.23;67.75
38227;BME280;24026;49.446;8.576;2023-05-09T01:42:01;100705.72;;;18.22;67.65
38227;BME280;24026;49.446;8.576;2023-05-09T01:44:22;100703.84;;;18.22;67.77
38227;BME280;24026;49.446;8.576;2023-05-09T01:46:44;100711.41;;;18.20;68.01
38227;BME280;24026;49.446;8.576;2023-05-09T01:49:07;100715.97;;;18.20;68.01
38227;BME280;24026;49.446;8.576;2023-05-09T01:51:29;100716.81;;;18.15;67.91
38227;BME280;24026;49.446;8.576;2023-05-09T01:53:51;100715.16;;;18.19;67.71
38227;BME280;24026;49.446;8.576;2023-05-09T01:56:13;100711.16;;;18.17;67.82
38227;BME280;24026;49.446;8.576;2023-05-09T01:58:35;100709.28;;;18.17;67.85
38227;BME280;24026;49.446;8.576;2023-05-09T02:00:56;100703.09;;;18.17;67.77
38227;BME280;24026;49.446;8.576;2023-05-09T02:03:19;100703.88;;;18.17;67.52
38227;BME280;24026;49.446;8.576;2023-05-09T02:05:41;100709.28;;;18.17;67.83
38227;BME280;24026;49.446;8.576;2023-05-09T02:08:02;100702.59;;;18.14;67.67
38227;BME280;24026;49.446;8.576;2023-05-09T02:10:23;100694.28;;;18.11;68.07
38227;BME280;24026;49.446;8.576;2023-05-09T02:12:44;100698.84;;;18.10;68.04
38227;BME280;24026;49.446;8.576;2023-05-09T02:15:05;100692.38;;;18.11;67.52
38227;BME280;24026;49.446;8.576;2023-05-09T02:17:26;100695.09;;;18.11;67.87
38227;BME280;24026;49.446;8.576;2023-05-09T02:19:49;100694.56;;;18.09;67.84
38227;BME280;24026;49.446;8.576;2023-05-09T02:22:11;100698.34;;;18.08;67.74
38227;BME280;24026;49.446;8.576;2023-05-09T02:24:32;100699.41;;;18.07;67.69
38227;BME280;24026;49.446;8.576;2023-05-09T02:26:54;100705.88;;;18.06;67.99
38227;BME280;24026;49.446;8.576;2023-05-09T02:29:15;100699.41;;;18.07;67.88
38227;BME280;24026;49.446;8.576;2023-05-09T02:31:38;100695.66;;;18.08;67.53
38227;BME280;24026;49.446;8.576;2023-05-09T02:34:01;100701.31;;;18.07;67.69
38227;BME280;24026;49.446;8.576;2023-05-09T02:36:23;100694.56;;;18.09;67.52
38227;BME280;24026;49.446;8.576;2023-05-09T02:38:44;100700.00;;;18.04;67.84
38227;BME280;24026;49.446;8.576;2023-05-09T02:41:05;100705.88;;;18.06;67.56
38227;BME280;24026;49.446;8.576;2023-05-09T02:43:25;100705.13;;;18.01;67.87
38227;BME280;24026;49.446;8.576;2023-05-09T02:45:45;100704.84;;;18.02;67.43
38227;BME280;24026;49.446;8.576;2023-05-09T02:48:06;100703.53;;;18.00;67.92
38227;BME280;24026;49.446;8.576;2023-05-09T02:50:26;100692.22;;;18.03;67.81
38227;BME280;24026;49.446;8.576;2023-05-09T02:52:47;100691.66;;;18.01;67.33
38227;BME280;24026;49.446;8.576;2023-05-09T02:55:08;100689.25;;;17.99;67.60
38227;BME280;24026;49.446;8.576;2023-05-09T02:57:28;100688.75;;;17.97;67.56
38227;BME280;24026;49.446;8.576;2023-05-09T02:59:49;100686.63;;;17.94;68.00
38227;BME280;24026;49.446;8.576;2023-05-09T03:02:09;100680.69;;;17.97;67.54
38227;BME280;24026;49.446;8.576;2023-05-09T03:04:29;100675.09;;;17.93;67.82
38227;BME280;24026;49.446;8.576;2023-05-09T03:06:50;100680.47;;;17.93;67.71
38227;BME280;24026;49.446;8.576;2023-05-09T03:09:11;100674.84;;;17.90;67.83
38227;BME280;24026;49.446;8.576;2023-05-09T03:11:31;100671.88;;;17.91;67.95
38227;BME280;24026;49.446;8.576;2023-05-09T03:13:52;100675.88;;;17.94;67.57
38227;BME280;24026;49.446;8.576;2023-05-09T03:16:13;100673.19;;;17.94;67.76
38227;BME280;24026;49.446;8.576;2023-05-09T03:18:34;100668.63;;;17.94;67.54
38227;BME280;24026;49.446;8.576;2023-05-09T03:20:54;100662.44;;;17.94;67.57
38227;BME280;24026;49.446;8.576;2023-05-09T03:23:15;100664.84;;;17.95;67.48
38227;BME280;24026;49.446;8.576;2023-05-09T03:25:35;100658.94;;;17.93;67.46
38227;BME280;24026;49.446;8.576;2023-05-09T03:27:55;100659.19;;;17.97;67.56
38227;BME280;24026;49.446;8.576;2023-05-09T03:30:16;100646.28;;;17.94;67.55
38227;BME280;24026;49.446;8.576;2023-05-09T03:32:36;100654.66;;;17.92;67.53
38227;BME280;24026;49.446;8.576;2023-05-09T03:34:56;100647.69;;;17.91;67.68
38227;BME280;24026;49.446;8.576;2023-05-09T03:37:17;100640.91;;;17.94;67.41
38227;BME280;24026;49.446;8.576;2023-05-09T03:39:37;100651.69;;;17.94;67.41
38227;BME280;24026;49.446;8.576;2023-05-09T03:41:58;100645.22;;;17.95;67.52
38227;BME280;24026;49.446;8.576;2023-05-09T03:44:18;100647.63;;;17.96;67.40
38227;BME280;24026;49.446;8.576;2023-05-09T03:46:38;100639.84;;;17.95;67.48
38227;BME280;24026;49.446;8.576;2023-05-09T03:48:59;100648.19;;;17.93;67.59
38227;BME280;24026;49.446;8.576;2023-05-09T03:51:19;100649.81;;;17.94;67.67
38227;BME280;24026;49.446;8.576;2023-05-09T03:53:40;100656.50;;;17.97;67.25
38227;BME280;24026;49.446;8.576;2023-05-09T03:56:00;100646.56;;;17.98;67.39
38227;BME280;24026;49.446;8.576;2023-05-09T03:58:21;100642.75;;;17.99;67.21
38227;BME280;24026;49.446;8.576;2023-05-09T04:00:41;100643.31;;;17.95;67.57
38227;BME280;24026;49.446;8.576;2023-05-09T04:03:02;100640.63;;;17.95;67.49
38227;BME280;24026;49.446;8.576;2023-05-09T04:05:23;100636.09;;;17.96;67.59
38227;BME280;24026;49.446;8.576;2023-05-09T04:07:43;100641.97;;;17.98;67.23
38227;BME280;24026;49.446;8.576;2023-05-09T04:10:04;100639.28;;;17.98;67.50
38227;BME280;24026;49.446;8.576;2023-05-09T04:12:25;100640.63;;;17.95;67.59
38227;BME280;24026;49.446;8.576;2023-05-09T04:14:45;100641.91;;;18.03;67.31
38227;BME280;24026;49.446;8.576;2023-05-09T04:17:06;100649.19;;;18.03;67.31
38227;BME280;24026;49.446;8.576;2023-05-09T04:19:26;100640.28;;;18.02;67.38
38227;BME280;24026;49.446;8.576;2023-05-09T04:21:47;100639.28;;;17.98;67.25
38227;BME280;24026;49.446;8.576;2023-05-09T04:24:07;100645.16;;;18.00;67.30
38227;BME280;24026;49.446;8.576;2023-05-09T04:26:27;100644.88;;;18.02;67.10
38227;BME280;24026;49.446;8.576;2023-05-09T04:28:49;100646.50;;;18.03;67.47
38227;BME280;24026;49.446;8.576;2023-05-09T04:31:09;100650.81;;;17.99;67.32
38227;BME280;24026;49.446;8.576;2023-05-09T04:33:31;100644.38;;;18.00;67.11
38227;BME280;24026;49.446;8.576;2023-05-09T04:35:52;100647.84;;;18.00;67.26
38227;BME280;24026;49.446;8.576;2023-05-09T04:38:13;100648.66;;;18.01;67.06
38227;BME280;24026;49.446;8.576;2023-05-09T04:40:33;100651.88;;;18.03;67.08
38227;BME280;24026;49.446;8.576;2023-05-09T04:42:54;100653.22;;;18.00;67.38
38227;BME280;24026;49.446;8.576;2023-05-09T04:45:16;100658.03;;;18.03;67.00
38227;BME280;24026;49.446;8.576;2023-05-09T04:47:36;100652.38;;;18.05;67.06
38227;BME280;24026;49.446;8.576;2023-05-09T04:49:57;100648.03;;;18.09;67.21
38227;BME280;24026;49.446;8.576;2023-05-09T04:52:17;100647.22;;;18.08;66.91
38227;BME280;24026;49.446;8.576;2023-05-09T04:54:38;100640.53;;;18.06;67.23
38227;BME280;24026;49.446;8.576;2023-05-09T04:56:58;100642.41;;;18.05;66.97
38227;BME280;24026;49.446;8.576;2023-05-09T04:59:19;100641.06;;;18.08;67.06
38227;BME280;24026;49.446;8.576;2023-05-09T05:01:40;100643.19;;;18.11;66.85
38227;BME280;24026;49.446;8.576;2023-05-09T05:04:00;100634.59;;;18.09;66.99
38227;BME280;24026;49.446;8.576;2023-05-09T05:06:21;100635.91;;;18.11;66.96
38227;BME280;24026;49.446;8.576;2023-05-09T05:08:42;100634.06;;;18.07;67.14
38227;BME280;24026;49.446;8.576;2023-05-09T05:11:04;100630.03;;;18.09;66.76
38227;BME280;24026;49.446;8.576;2023-05-09T05:13:24;100634.53;;;18.14;67.06
38227;BME280;24026;49.446;8.576;2023-05-09T05:15:45;100628.41;;;18.08;67.04
38227;BME280;24026;49.446;8.576;2023-05-09T05:18:06;100623.25;;;18.12;66.87
38227;BME280;24026;49.446;8.576;2023-05-09T05:20:33;100621.59;;;18.16;66.93
38227;BME280;24026;49.446;8.576;2023-05-09T05:22:54;100622.56;;;18.25;66.39
38227;BME280;24026;49.446;8.576;2023-05-09T05:25:15;100620.97;;;18.24;66.76
38227;BME280;24026;49.446;8.576;2023-05-09T05:27:36;100620.16;;;18.24;66.64
38227;BME280;24026;49.446;8.576;2023-05-09T05:29:57;100614.78;;;18.24;66.89
38227;BME280;24026;49.446;8.576;2023-05-09T05:32:17;100616.41;;;18.25;67.13
38227;BME280;24026;49.446;8.576;2023-05-09T05:34:37;100618.28;;;18.24;67.06
38227;BME280;24026;49.446;8.576;2023-05-09T05:36:59;100610.16;;;18.29;66.75
38227;BME280;24026;49.446;8.576;2023-05-09T05:39:21;100612.56;;;18.31;67.12
38227;BME280;24026;49.446;8.576;2023-05-09T05:41:43;100614.94;;;18.32;66.96
38227;BME280;24026;49.446;8.576;2023-05-09T05:44:04;100605.00;;;18.33;66.92
38227;BME280;24026;49.446;8.576;2023-05-09T05:46:24;100601.72;;;18.36;66.87
38227;BME280;24026;49.446;8.576;2023-05-09T05:48:45;100607.34;;;18.40;66.26
38227;BME280;24026;49.446;8.576;2023-05-09T05:51:08;100604.88;;;18.43;66.62
38227;BME280;24026;49.446;8.576;2023-05-09T05:53:29;100608.91;;;18.41;66.55
38227;BME280;24026;49.446;8.576;2023-05-09T05:55:51;100611.03;;;18.44;66.61
38227;BME280;24026;49.446;8.576;2023-05-09T05:58:11;100609.16;;;18.44;66.49
38227;BME280;24026;49.446;8.576;2023-05-09T06:00:32;100606.75;;;18.43;66.68
38227;BME280;24026;49.446;8.576;2023-05-09T06:02:53;100615.28;;;18.50;66.75
38227;BME280;24026;49.446;8.576;2023-05-09T06:05:13;100607.28;;;18.45;67.45
38227;BME280;24026;49.446;8.576;2023-05-09T06:07:34;100610.47;;;18.47;66.98
38227;BME280;24026;49.446;8.576;2023-05-09T06:09:55;100612.66;;;18.45;67.33
38227;BME280;24026;49.446;8.576;2023-05-09T06:12:16;100607.56;;;18.43;67.49
38227;BME280;24026;49.446;8.576;2023-05-09T06:14:36;100607.50;;;18.48;67.28
38227;BME280;24026;49.446;8.576;2023-05-09T06:16:58;100600.22;;;18.49;67.79
38227;BME280;24026;49.446;8.576;2023-05-09T06:19:18;100596.44;;;18.50;67.58
38227;BME280;24026;49.446;8.576;2023-05-09T06:21:38;100600.44;;;18.52;67.70
38227;BME280;24026;49.446;8.576;2023-05-09T06:23:59;100598.84;;;18.51;67.74
38227;BME280;24026;49.446;8.576;2023-05-09T06:26:21;100595.03;;;18.52;67.36
38227;BME280;24026;49.446;8.576;2023-05-09T06:28:42;100598.19;;;18.60;67.44
38227;BME280;24026;49.446;8.576;2023-05-09T06:31:02;100598.47;;;18.58;67.98
38227;BME280;24026;49.446;8.576;2023-05-09T06:33:23;100595.00;;;18.58;67.71
38227;BME280;24026;49.446;8.576;2023-05-09T06:35:43;100599.50;;;18.62;67.29
38227;BME280;24026;49.446;8.576;2023-05-09T06:38:05;100594.41;;;18.61;67.63
38227;BME280;24026;49.446;8.576;2023-05-09T06:40:26;100592.94;;;18.68;67.70
38227;BME280;24026;49.446;8.576;2023-05-09T06:42:47;100601.03;;;18.68;67.47
38227;BME280;24026;49.446;8.576;2023-05-09T06:45:13;100597.00;;;18.66;67.66
38227;BME280;24026;49.446;8.576;2023-05-09T06:47:35;100600.81;;;18.65;67.70
38227;BME280;24026;49.446;8.576;2023-05-09T06:49:55;100593.81;;;18.64;67.75
38227;BME280;24026;49.446;8.576;2023-05-09T06:52:15;100590.63;;;18.62;67.34
38227;BME280;24026;49.446;8.576;2023-05-09T06:54:37;100581.22;;;18.59;67.76
38227;BME280;24026;49.446;8.576;2023-05-09T06:56:58;100578.03;;;18.57;67.99
38227;BME280;24026;49.446;8.576;2023-05-09T06:59:19;100575.84;;;18.59;67.89
38227;BME280;24026;49.446;8.576;2023-05-09T07:01:41;100571.50;;;18.63;67.72
38227;BME280;24026;49.446;8.576;2023-05-09T07:04:03;100571.50;;;18.63;67.74
38227;BME280;24026;49.446;8.576;2023-05-09T07:06:24;100565.31;;;18.63;67.61
38227;BME280;24026;49.446;8.576;2023-05-09T07:08:44;100564.28;;;18.59;68.07
38227;BME280;24026;49.446;8.576;2023-05-09T07:11:07;100559.41;;;18.61;67.94
38227;BME280;24026;49.446;8.576;2023-05-09T07:13:28;100565.91;;;18.60;67.61
38227;BME280;24026;49.446;8.576;2023-05-09T07:15:53;100565.03;;;18.64;67.85
38227;BME280;24026;49.446;8.576;2023-05-09T07:18:18;100568.31;;;18.61;67.83
38227;BME280;24026;49.446;8.576;2023-05-09T07:20:39;100556.72;;;18.61;67.86
38227;BME280;24026;49.446;8.576;2023-05-09T07:23:04;100555.34;;;18.63;67.71
38227;BME280;24026;49.446;8.576;2023-05-09T07:25:25;100552.44;;;18.60;67.56
38227;BME280;24026;49.446;8.576;2023-05-09T07:27:47;100549.97;;;18.63;67.72
38227;BME280;24026;49.446;8.576;2023-05-09T07:30:11;100538.63;;;18.66;67.73
38227;BME280;24026;49.446;8.576;2023-05-09T07:32:34;100532.41;;;18.66;67.55
38227;BME280;24026;49.446;8.576;2023-05-09T07:34:55;100539.63;;;18.70;67.76
38227;BME280;24026;49.446;8.576;2023-05-09T07:37:17;100538.25;;;18.73;67.35
38227;BME280;24026;49.446;8.576;2023-05-09T07:39:40;100535.28;;;18.75;67.48
38227;BME280;24026;49.446;8.576;2023-05-09T07:42:02;100530.69;;;18.75;67.27
38227;BME280;24026;49.446;8.576;2023-05-09T07:44:25;100537.44;;;18.73;67.66
38227;BME280;24026;49.446;8.576;2023-05-09T07:46:45;100529.88;;;18.75;67.60
38227;BME280;24026;49.446;8.576;2023-05-09T07:49:07;100522.31;;;18.77;67.84
38227;BME280;24026;49.446;8.576;2023-05-09T07:51:27;100513.34;;;18.81;67.64
38227;BME280;24026;49.446;8.576;2023-05-09T07:53:49;100517.13;;;18.80;67.45
38227;BME280;24026;49.446;8.576;2023-05-09T07:56:14;100510.75;;;18.76;67.70
38227;BME280;24026;49.446;8.576;2023-05-09T07:58:36;100517.13;;;18.80;67.32
38227;BME280;24026;49.446;8.576;2023-05-09T08:00:58;100507.41;;;18.84;67.09
38227;BME280;24026;49.446;8.576;2023-05-09T08:03:20;100509.78;;;18.86;67.05
38227;BME280;24026;49.446;8.576;2023-05-09T08:05:42;100508.22;;;18.85;67.84
38227;BME280;24026;49.446;8.576;2023-05-09T08:08:03;100494.75;;;18.85;67.84
38227;BME280;24026;49.446;8.576;2023-05-09T08:10:24;100494.16;;;18.88;67.53
38227;BME280;24026;49.446;8.576;2023-05-09T08:12:48;100487.38;;;18.91;67.12
38227;BME280;24026;49.446;8.576;2023-05-09T08:15:10;100481.19;;;18.90;67.62
38227;BME280;24026;49.446;8.576;2023-05-09T08:17:33;100481.59;;;18.97;67.90
38227;BME280;24026;49.446;8.576;2023-05-09T08:19:54;100477.53;;;19.00;67.87
38227;BME280;24026;49.446;8.576;2023-05-09T08:22:26;100475.72;;;18.95;67.66
38227;BME280;24026;49.446;8.576;2023-05-09T08:24:48;100469.47;;;19.00;67.70
38227;BME280;24026;49.446;8.576;2023-05-09T08:27:12;100470.44;;;19.04;67.71
38227;BME280;24026;49.446;8.576;2023-05-09T08:29:34;100466.97;;;19.03;67.28
38227;BME280;24026;49.446;8.576;2023-05-09T08:31:57;100473.97;;;19.04;67.19
38227;BME280;24026;49.446;8.576;2023-05-09T08:34:19;100474.56;;;19.01;67.55
38227;BME280;24026;49.446;8.576;2023-05-09T08:36:41;100467.75;;;19.04;67.61
38227;BME280;24026;49.446;8.576;2023-05-09T08:39:05;100470.94;;;19.06;67.43
38227;BME280;24026;49.446;8.576;2023-05-09T08:41:26;100462.28;;;19.09;67.27
38227;BME280;24026;49.446;8.576;2023-05-09T08:43:48;100462.28;;;19.09;67.77
38227;BME280;24026;49.446;8.576;2023-05-09T08:46:10;100459.28;;;19.11;67.67
38227;BME280;24026;49.446;8.576;2023-05-09T08:48:34;100452.31;;;19.10;67.34
38227;BME280;24026;49.446;8.576;2023-05-09T08:50:57;100456.09;;;19.09;67.33
38227;BME280;24026;49.446;8.576;2023-05-09T08:53:19;100450.63;;;19.14;67.38
38227;BME280;24026;49.446;8.576;2023-05-09T08:55:42;100448.44;;;19.16;67.11
38227;BME280;24026;49.446;8.576;2023-05-09T08:58:04;100452.31;;;19.10;67.65
38227;BME280;24026;49.446;8.576;2023-05-09T09:00:25;100448.53;;;19.11;67.33
38227;BME280;24026;49.446;8.576;2023-05-09T09:02:48;100447.13;;;19.13;67.44
38227;BME280;24026;49.446;8.576;2023-05-09T09:05:09;100441.25;;;19.11;67.29
38227;BME280;24026;49.446;8.576;2023-05-09T09:07:33;100444.44;;;19.13;67.21
38227;BME280;24026;49.446;8.576;2023-05-09T09:09:56;100429.06;;;19.14;67.55
38227;BME280;24026;49.446;8.576;2023-05-09T09:12:21;100433.66;;;19.13;66.98
38227;BME280;24026;49.446;8.576;2023-05-09T09:14:46;100430.06;;;19.04;67.30
38227;BME280;24026;49.446;8.576;2023-05-09T09:17:10;100429.06;;;19.14;67.37
38227;BME280;24026;49.446;8.576;2023-05-09T09:19:39;100420.41;;;19.17;67.05
38227;BME280;24026;49.446;8.576;2023-05-09T09:22:03;100424.38;;;19.19;67.46
38227;BME280;24026;49.446;8.576;2023-05-09T09:24:25;100420.59;;;19.20;67.37
38227;BME280;24026;49.446;8.576;2023-05-09T09:26:48;100419.22;;;19.23;67.02
38227;BME280;24026;49.446;8.576;2023-05-09T09:29:09;100413.53;;;19.24;67.08
38227;BME280;24026;49.446;8.576;2023-05-09T09:31:31;100410.75;;;19.30;67.20
38227;BME280;24026;49.446;8.576;2023-05-09T09:33:58;100408.03;;;19.30;67.07
38227;BME280;24026;49.446;8.576;2023-05-09T09:36:27;100402.66;;;19.30;66.94
38227;BME280;24026;49.446;8.576;2023-05-09T09:38:48;100402.66;;;19.30;66.54
38227;BME280;24026;49.446;8.576;2023-05-09T09:41:11;100397.16;;;19.35;66.48
38227;BME280;24026;49.446;8.576;2023-05-09T09:43:32;100405.53;;;19.33;66.58
38227;BME280;24026;49.446;8.576;2023-05-09T09:45:52;100400.16;;;19.33;66.48
38227;BME280;24026;49.446;8.576;2023-05-09T09:48:13;100391.19;;;19.38;66.72
38227;BME280;24026;49.446;8.576;2023-05-09T09:50:33;100389.28;;;19.38;66.49
38227;BME280;24026;49.446;8.576;2023-05-09T09:52:55;100384.06;;;19.42;66.63
38227;BME280;24026;49.446;8.576;2023-05-09T09:55:16;100376.47;;;19.44;66.71
38227;BME280;24026;49.446;8.576;2023-05-09T09:57:37;100375.41;;;19.45;66.62
38227;BME280;24026;49.446;8.576;2023-05-09T10:00:00;100372.09;;;19.48;66.14
38227;BME280;24026;49.446;8.576;2023-05-09T10:02:22;100374.50;;;19.50;66.21
38227;BME280;24026;49.446;8.576;2023-05-09T10:04:43;100377.19;;;19.50;66.08
38227;BME280;24026;49.446;8.576;2023-05-09T10:07:07;100370.38;;;19.52;66.17
38227;BME280;24026;49.446;8.576;2023-05-09T10:09:29;100364.22;;;19.52;65.96
38227;BME280;24026;49.446;8.576;2023-05-09T10:11:52;100356.00;;;19.57;66.05
38227;BME280;24026;49.446;8.576;2023-05-09T10:14:13;100357.63;;;19.58;65.52
38227;BME280;24026;49.446;8.576;2023-05-09T10:16:33;100353.19;;;19.62;65.59
38227;BME280;24026;49.446;8.576;2023-05-09T10:18:55;100340.50;;;19.62;65.86
38227;BME280;24026;49.446;8.576;2023-05-09T10:21:17;100339.13;;;19.65;65.97
38227;BME280;24026;49.446;8.576;2023-05-09T10:23:39;100335.81;;;19.68;65.55
38227;BME280;24026;49.446;8.576;2023-05-09T10:26:22;100330.63;;;19.72;65.24
38227;BME280;24026;49.446;8.576;2023-05-09T10:28:49;100323.81;;;19.74;65.15
38227;BME280;24026;49.446;8.576;2023-05-09T10:31:25;100314.94;;;19.74;65.23
38227;BME280;24026;49.446;8.576;2023-05-09T10:33:48;100317.22;;;19.80;65.24
38227;BME280;24026;49.446;8.576;2023-05-09T10:36:09;100303.94;;;19.84;64.79
38227;BME280;24026;49.446;8.576;2023-05-09T10:38:33;100296.03;;;19.88;64.69
38227;BME280;24026;49.446;8.576;2023-05-09T10:40:55;100289.06;;;19.87;64.85
38227;BME280;24026;49.446;8.576;2023-05-09T10:43:20;100283.06;;;19.90;64.76
38227;BME280;24026;49.446;8.576;2023-05-09T10:45:45;100278.63;;;19.94;64.73
38227;BME280;24026;49.446;8.576;2023-05-09T10:48:10;100278.09;;;19.83;64.96
38227;BME280;24026;49.446;8.576;2023-05-09T10:50:31;100268.16;;;19.92;64.27
38227;BME280;24026;49.446;8.576;2023-05-09T10:53:05;100267.53;;;19.95;64.59
38227;BME280;24026;49.446;8.576;2023-05-09T10:55:53;100264.06;;;19.95;64.55
38227;BME280;24026;49.446;8.576;2023-05-09T10:58:31;100260.94;;;20.02;64.21
38227;BME280;24026;49.446;8.576;2023-05-09T11:01:02;100254.28;;;20.08;64.34
38227;BME280;24026;49.446;8.576;2023-05-09T11:03:25;100256.19;;;20.07;64.19
38227;BME280;24026;49.446;8.576;2023-05-09T11:05:50;100246.69;;;20.10;64.21
38227;BME280;24026;49.446;8.576;2023-05-09T11:10:41;100236.81;;;20.05;63.83
38227;BME280;24026;49.446;8.576;2023-05-09T11:13:02;100236.38;;;20.12;64.00
38227;BME280;24026;49.446;8.576;2023-05-09T11:15:22;100235.78;;;20.15;63.63
38227;BME280;24026;49.446;8.576;2023-05-09T11:17:43;100230.72;;;20.22;63.42
38227;BME280;24026;49.446;8.576;2023-05-09T11:20:04;100228.34;;;20.21;63.57
38227;BME280;24026;49.446;8.576;2023-05-09T11:22:39;100222.00;;;20.25;63.15
38227;BME280;24026;49.446;8.576;2023-05-09T11:25:07;100219.63;;;20.24;63.04
38227;BME280;24026;49.446;8.576;2023-05-09T11:27:36;100219.78;;;20.27;63.25
38227;BME280;24026;49.446;8.576;2023-05-09T11:29:58;100210.59;;;20.28;63.07
38227;BME280;24026;49.446;8.576;2023-05-09T11:32:20;100210.16;;;20.35;63.19
38227;BME280;24026;49.446;8.576;2023-05-09T11:34:42;100202.53;;;20.37;62.82
38227;BME280;24026;49.446;8.576;2023-05-09T11:37:11;100199.34;;;20.35;62.93
38227;BME280;24026;49.446;8.576;2023-05-09T11:39:32;100200.63;;;20.38;62.65
38227;BME280;24026;49.446;8.576;2023-05-09T11:41:55;100208.09;;;20.41;62.56
38227;BME280;24026;49.446;8.576;2023-05-09T11:44:17;100206.19;;;20.41;62.56
38227;BME280;24026;49.446;8.576;2023-05-09T11:46:38;100197.47;;;20.44;62.70
38227;BME280;24026;49.446;8.576;2023-05-09T11:48:59;100198.59;;;20.43;62.98
38227;BME280;24026;49.446;8.576;2023-05-09T11:51:19;100194.00;;;20.44;62.87
38227;BME280;24026;49.446;8.576;2023-05-09T11:53:43;100187.16;;;20.46;62.26
38227;BME280;24026;49.446;8.576;2023-05-09T11:56:06;100186.19;;;20.42;62.53
38227;BME280;24026;49.446;8.576;2023-05-09T11:58:27;100178.59;;;20.44;61.96
38227;BME280;24026;49.446;8.576;2023-05-09T12:00:50;100183.03;;;20.49;61.90
38227;BME280;24026;49.446;8.576;2023-05-09T12:03:11;100174.16;;;20.48;62.34
38227;BME280;24026;49.446;8.576;2023-05-09T12:05:31;100164.16;;;20.49;62.06
38227;BME280;24026;49.446;8.576;2023-05-09T12:07:52;100164.47;;;20.47;62.36
38227;BME280;24026;49.446;8.576;2023-05-09T12:10:15;100160.34;;;20.50;62.11
38227;BME280;24026;49.446;8.576;2023-05-09T12:12:41;100149.25;;;20.51;61.96
38227;BME280;24026;49.446;8.576;2023-05-09T12:15:06;100151.44;;;20.49;62.10
38227;BME280;24026;49.446;8.576;2023-05-09T12:17:27;100145.56;;;20.47;61.64
38227;BME280;24026;49.446;8.576;2023-05-09T12:19:47;100144.16;;;20.50;61.84
38227;BME280;24026;49.446;8.576;2023-05-09T12:22:08;100136.22;;;20.53;61.94
38227;BME280;24026;49.446;8.576;2023-05-09T12:24:29;100137.63;;;20.51;61.38
38227;BME280;24026;49.446;8.576;2023-05-09T12:26:50;100129.22;;;20.52;61.90
38227;BME280;24026;49.446;8.576;2023-05-09T12:29:10;100121.59;;;20.54;61.64
38227;BME280;24026;49.446;8.576;2023-05-09T12:31:32;100112.09;;;20.57;61.49